Hlavní strana
METAR-TAF:

METAR-TAF

Letiště :

Havre City-County Airport

Havre, Montana, Spojené státy americké

zeměpisná šířka: 48-32-34N, zeměpisná délka: 109-45-48W, výška: 789 m

Aktuální stav počasí

Zpráva byla vytvořena před 48 minutami, v 01:53 UTC
Jihozápadní vítr 15 kt
Teplota 6°C
Vlhkost vzduchu 52%
Tlak 1020 hPa
Viditelnost: 16.1 km
Jasno

METAR: KHVR 140153Z AUTO 23015KT 10SM CLR 06/M03 A3011 RMK AO2 PK WND 22026/0100 SLP216 T00611033

Čas: 19:41 (02:41 UTC)

Předpověď počasí

Zpráva byla vytvořena před 3 hodinami a 6 minutami, v 23:35 UTC
Předpověď platná od 14 v 00 UTC do 14 v 24 UTC
Jihozápadní vítr 17 kt s nárazy do 27 kt
Viditelnost: 10 km
Polojasno ve výšce 15000 ft
Od 14 v 0200 UTC
Jihozápadní vítr 12 kt s nárazy do 20 kt
Viditelnost: 10 km
Polojasno ve výšce 15000 ft
Od 14 v 2100 UTC
Západojihozápadní vítr 18 kt s nárazy do 30 kt
Viditelnost: 10 km
Polojasno ve výšce 15000 ft

TAF: KHVR 132335Z 1400/1424 22017G27KT P6SM SCT150 FM140200 23012G20KT P6SM SCT150 FM142100 25018G30KT P6SM SCT150

Stav a předpovědi počasí z více než 4 000 letišť (zprávy METAR a TAF).

Červené a žluté tečky na mapě představují dostupné meteorologické stanice.

Když kurzor umístíte na tečku, zobrazí se název stanice.

Pak kliknutím zobrazíte stav a předpověď počasí.

Chcete-li změnit mapu, kliknutím na zelené tlačítko se znaménkem +mapu přiblížíte, kliknutím na zelené tlačítko se znaménkem – mapu oddálíte a kliknutím na zelené šipky přejdete na sousední mapy.


METAR-TAF: